sensor_id;sensor_type;location;lat;lon;timestamp;P1;durP1;ratioP1;P2;durP2;ratioP2
8704;SDS011;4389;41.932;25.904;2022-08-19T00:00:17;16.50;;;7.70;;
8704;SDS011;4389;41.932;25.904;2022-08-19T00:02:44;15.00;;;6.90;;
8704;SDS011;4389;41.932;25.904;2022-08-19T00:05:13;9.97;;;7.30;;
8704;SDS011;4389;41.932;25.904;2022-08-19T00:07:41;13.50;;;8.00;;
8704;SDS011;4389;41.932;25.904;2022-08-19T00:10:10;12.53;;;7.63;;
8704;SDS011;4389;41.932;25.904;2022-08-19T00:12:39;8.77;;;7.70;;
8704;SDS011;4389;41.932;25.904;2022-08-19T00:15:07;14.63;;;8.23;;
8704;SDS011;4389;41.932;25.904;2022-08-19T00:17:36;7.83;;;7.03;;
8704;SDS011;4389;41.932;25.904;2022-08-19T00:20:04;9.33;;;7.40;;
8704;SDS011;4389;41.932;25.904;2022-08-19T00:22:33;11.60;;;7.37;;
8704;SDS011;4389;41.932;25.904;2022-08-19T00:25:00;9.97;;;6.93;;
8704;SDS011;4389;41.932;25.904;2022-08-19T00:27:27;8.23;;;6.97;;
8704;SDS011;4389;41.932;25.904;2022-08-19T00:29:54;9.10;;;8.00;;
8704;SDS011;4389;41.932;25.904;2022-08-19T00:32:21;8.73;;;7.83;;
8704;SDS011;4389;41.932;25.904;2022-08-19T00:34:48;9.13;;;7.00;;
8704;SDS011;4389;41.932;25.904;2022-08-19T00:37:17;8.83;;;7.03;;
8704;SDS011;4389;41.932;25.904;2022-08-19T00:39:46;8.07;;;7.27;;
8704;SDS011;4389;41.932;25.904;2022-08-19T00:42:13;7.70;;;7.00;;
8704;SDS011;4389;41.932;25.904;2022-08-19T00:44:40;8.33;;;6.53;;
8704;SDS011;4389;41.932;25.904;2022-08-19T00:47:08;9.27;;;7.40;;
8704;SDS011;4389;41.932;25.904;2022-08-19T00:49:38;8.77;;;7.73;;
8704;SDS011;4389;41.932;25.904;2022-08-19T00:52:11;11.33;;;8.07;;
8704;SDS011;4389;41.932;25.904;2022-08-19T00:54:41;11.40;;;7.50;;
8704;SDS011;4389;41.932;25.904;2022-08-19T00:57:12;14.43;;;8.30;;
8704;SDS011;4389;41.932;25.904;2022-08-19T00:59:42;9.47;;;7.90;;
8704;SDS011;4389;41.932;25.904;2022-08-19T01:02:11;11.43;;;8.23;;
8704;SDS011;4389;41.932;25.904;2022-08-19T01:04:38;10.87;;;8.27;;
8704;SDS011;4389;41.932;25.904;2022-08-19T01:07:05;8.60;;;7.70;;
8704;SDS011;4389;41.932;25.904;2022-08-19T01:09:34;8.87;;;7.70;;
8704;SDS011;4389;41.932;25.904;2022-08-19T01:12:00;10.30;;;7.50;;
8704;SDS011;4389;41.932;25.904;2022-08-19T01:14:30;13.23;;;8.23;;
8704;SDS011;4389;41.932;25.904;2022-08-19T01:16:57;17.90;;;9.50;;
8704;SDS011;4389;41.932;25.904;2022-08-19T01:19:26;9.33;;;8.23;;
8704;SDS011;4389;41.932;25.904;2022-08-19T01:21:57;14.60;;;8.70;;
8704;SDS011;4389;41.932;25.904;2022-08-19T01:24:30;13.47;;;8.43;;
8704;SDS011;4389;41.932;25.904;2022-08-19T01:26:57;11.90;;;8.47;;
8704;SDS011;4389;41.932;25.904;2022-08-19T01:29:24;9.87;;;8.87;;
8704;SDS011;4389;41.932;25.904;2022-08-19T01:31:51;10.17;;;8.20;;
8704;SDS011;4389;41.932;25.904;2022-08-19T01:34:18;11.23;;;9.73;;
8704;SDS011;4389;41.932;25.904;2022-08-19T01:36:47;12.83;;;8.87;;
8704;SDS011;4389;41.932;25.904;2022-08-19T01:39:15;8.73;;;7.97;;
8704;SDS011;4389;41.932;25.904;2022-08-19T01:41:46;10.20;;;8.40;;
8704;SDS011;4389;41.932;25.904;2022-08-19T01:44:14;15.87;;;7.93;;
8704;SDS011;4389;41.932;25.904;2022-08-19T01:46:42;10.13;;;7.77;;
8704;SDS011;4389;41.932;25.904;2022-08-19T01:49:09;8.07;;;7.27;;
8704;SDS011;4389;41.932;25.904;2022-08-19T01:51:37;9.07;;;8.17;;
8704;SDS011;4389;41.932;25.904;2022-08-19T01:54:04;8.50;;;7.70;;
8704;SDS011;4389;41.932;25.904;2022-08-19T01:56:31;8.83;;;7.80;;
8704;SDS011;4389;41.932;25.904;2022-08-19T01:59:00;8.03;;;7.23;;
8704;SDS011;4389;41.932;25.904;2022-08-19T02:01:29;9.60;;;8.00;;
8704;SDS011;4389;41.932;25.904;2022-08-19T02:03:57;10.63;;;8.07;;
8704;SDS011;4389;41.932;25.904;2022-08-19T02:06:26;12.20;;;7.90;;
8704;SDS011;4389;41.932;25.904;2022-08-19T02:08:53;15.83;;;8.80;;
8704;SDS011;4389;41.932;25.904;2022-08-19T02:11:21;22.07;;;8.40;;
8704;SDS011;4389;41.932;25.904;2022-08-19T02:13:52;13.30;;;8.03;;
8704;SDS011;4389;41.932;25.904;2022-08-19T02:16:20;10.40;;;8.60;;
8704;SDS011;4389;41.932;25.904;2022-08-19T02:18:47;8.60;;;7.77;;
8704;SDS011;4389;41.932;25.904;2022-08-19T02:21:15;14.03;;;9.03;;
8704;SDS011;4389;41.932;25.904;2022-08-19T02:23:43;9.53;;;7.77;;
8704;SDS011;4389;41.932;25.904;2022-08-19T02:26:11;13.63;;;8.30;;
8704;SDS011;4389;41.932;25.904;2022-08-19T02:28:39;9.13;;;8.23;;
8704;SDS011;4389;41.932;25.904;2022-08-19T02:31:08;8.07;;;7.27;;
8704;SDS011;4389;41.932;25.904;2022-08-19T02:33:37;8.77;;;7.87;;
8704;SDS011;4389;41.932;25.904;2022-08-19T02:36:05;11.83;;;7.73;;
8704;SDS011;4389;41.932;25.904;2022-08-19T02:38:33;10.33;;;7.63;;
8704;SDS011;4389;41.932;25.904;2022-08-19T02:41:03;11.77;;;8.90;;
8704;SDS011;4389;41.932;25.904;2022-08-19T02:43:32;10.27;;;8.20;;
8704;SDS011;4389;41.932;25.904;2022-08-19T02:46:01;10.53;;;9.27;;
8704;SDS011;4389;41.932;25.904;2022-08-19T02:48:28;16.93;;;9.07;;
8704;SDS011;4389;41.932;25.904;2022-08-19T02:50:57;17.70;;;9.33;;
8704;SDS011;4389;41.932;25.904;2022-08-19T02:53:25;8.50;;;7.70;;
8704;SDS011;4389;41.932;25.904;2022-08-19T02:55:53;11.10;;;8.53;;
8704;SDS011;4389;41.932;25.904;2022-08-19T02:58:21;35.17;;;9.60;;
8704;SDS011;4389;41.932;25.904;2022-08-19T03:00:49;15.37;;;8.97;;
8704;SDS011;4389;41.932;25.904;2022-08-19T03:03:18;11.30;;;7.60;;
8704;SDS011;4389;41.932;25.904;2022-08-19T03:05:45;8.33;;;7.60;;
8704;SDS011;4389;41.932;25.904;2022-08-19T03:08:14;9.97;;;8.00;;
8704;SDS011;4389;41.932;25.904;2022-08-19T03:10:41;10.80;;;8.07;;
8704;SDS011;4389;41.932;25.904;2022-08-19T03:13:11;14.83;;;8.50;;
8704;SDS011;4389;41.932;25.904;2022-08-19T03:15:40;13.13;;;8.80;;
8704;SDS011;4389;41.932;25.904;2022-08-19T03:18:07;10.77;;;8.70;;
8704;SDS011;4389;41.932;25.904;2022-08-19T03:20:39;12.30;;;8.50;;
8704;SDS011;4389;41.932;25.904;2022-08-19T03:23:06;13.90;;;8.90;;
8704;SDS011;4389;41.932;25.904;2022-08-19T03:25:37;10.37;;;9.07;;
8704;SDS011;4389;41.932;25.904;2022-08-19T03:28:07;20.00;;;9.43;;
8704;SDS011;4389;41.932;25.904;2022-08-19T03:30:34;9.73;;;8.60;;
8704;SDS011;4389;41.932;25.904;2022-08-19T03:33:00;14.83;;;9.20;;
8704;SDS011;4389;41.932;25.904;2022-08-19T03:35:28;9.53;;;8.47;;
8704;SDS011;4389;41.932;25.904;2022-08-19T03:37:55;19.27;;;9.23;;
8704;SDS011;4389;41.932;25.904;2022-08-19T03:40:22;19.80;;;8.90;;
8704;SDS011;4389;41.932;25.904;2022-08-19T03:42:50;10.93;;;9.07;;
8704;SDS011;4389;41.932;25.904;2022-08-19T03:45:18;11.77;;;9.77;;
8704;SDS011;4389;41.932;25.904;2022-08-19T03:47:45;13.30;;;10.53;;
8704;SDS011;4389;41.932;25.904;2022-08-19T03:50:11;26.37;;;13.07;;
8704;SDS011;4389;41.932;25.904;2022-08-19T03:52:39;11.77;;;8.80;;
8704;SDS011;4389;41.932;25.904;2022-08-19T03:55:06;15.17;;;8.87;;
8704;SDS011;4389;41.932;25.904;2022-08-19T03:57:34;17.27;;;8.93;;
8704;SDS011;4389;41.932;25.904;2022-08-19T04:00:03;22.17;;;19.67;;
8704;SDS011;4389;41.932;25.904;2022-08-19T04:02:32;12.00;;;8.73;;
8704;SDS011;4389;41.932;25.904;2022-08-19T04:04:58;15.37;;;8.50;;
8704;SDS011;4389;41.932;25.904;2022-08-19T04:07:25;15.97;;;8.87;;
8704;SDS011;4389;41.932;25.904;2022-08-19T04:09:52;18.77;;;8.00;;
8704;SDS011;4389;41.932;25.904;2022-08-19T04:12:19;17.00;;;8.77;;
8704;SDS011;4389;41.932;25.904;2022-08-19T04:14:46;9.10;;;8.03;;
8704;SDS011;4389;41.932;25.904;2022-08-19T04:17:14;16.03;;;8.23;;
8704;SDS011;4389;41.932;25.904;2022-08-19T04:19:41;13.37;;;8.60;;
8704;SDS011;4389;41.932;25.904;2022-08-19T04:22:08;21.30;;;8.67;;
8704;SDS011;4389;41.932;25.904;2022-08-19T04:24:36;37.43;;;13.00;;
8704;SDS011;4389;41.932;25.904;2022-08-19T04:27:03;23.70;;;11.03;;
8704;SDS011;4389;41.932;25.904;2022-08-19T04:29:31;32.00;;;10.03;;
8704;SDS011;4389;41.932;25.904;2022-08-19T04:31:59;21.20;;;9.60;;
8704;SDS011;4389;41.932;25.904;2022-08-19T04:34:28;23.80;;;9.90;;
8704;SDS011;4389;41.932;25.904;2022-08-19T04:36:56;18.37;;;10.50;;
8704;SDS011;4389;41.932;25.904;2022-08-19T04:39:24;20.53;;;9.90;;
8704;SDS011;4389;41.932;25.904;2022-08-19T04:42:13;27.05;;;10.27;;
8704;SDS011;4389;41.932;25.904;2022-08-19T04:44:58;23.15;;;10.43;;
8704;SDS011;4389;41.932;25.904;2022-08-19T04:47:26;29.33;;;10.15;;
8704;SDS011;4389;41.932;25.904;2022-08-19T04:49:54;27.20;;;9.13;;
8704;SDS011;4389;41.932;25.904;2022-08-19T04:52:21;14.57;;;7.85;;
8704;SDS011;4389;41.932;25.904;2022-08-19T04:54:48;19.38;;;8.73;;
8704;SDS011;4389;41.932;25.904;2022-08-19T04:57:15;10.27;;;7.95;;
8704;SDS011;4389;41.932;25.904;2022-08-19T04:59:42;8.93;;;8.02;;
8704;SDS011;4389;41.932;25.904;2022-08-19T05:02:09;17.97;;;8.77;;
8704;SDS011;4389;41.932;25.904;2022-08-19T05:04:36;12.10;;;8.53;;
8704;SDS011;4389;41.932;25.904;2022-08-19T05:07:05;10.10;;;7.80;;
8704;SDS011;4389;41.932;25.904;2022-08-19T05:09:34;10.13;;;7.40;;
8704;SDS011;4389;41.932;25.904;2022-08-19T05:12:02;13.83;;;9.37;;
8704;SDS011;4389;41.932;25.904;2022-08-19T05:14:29;31.48;;;13.68;;
8704;SDS011;4389;41.932;25.904;2022-08-19T05:16:56;10.57;;;8.47;;
8704;SDS011;4389;41.932;25.904;2022-08-19T05:19:23;10.17;;;9.17;;
8704;SDS011;4389;41.932;25.904;2022-08-19T05:22:08;17.07;;;8.60;;
8704;SDS011;4389;41.932;25.904;2022-08-19T05:24:53;19.67;;;9.30;;
8704;SDS011;4389;41.932;25.904;2022-08-19T05:27:20;19.27;;;9.63;;
8704;SDS011;4389;41.932;25.904;2022-08-19T05:29:47;14.00;;;9.25;;
8704;SDS011;4389;41.932;25.904;2022-08-19T05:32:14;16.60;;;10.27;;
8704;SDS011;4389;41.932;25.904;2022-08-19T05:34:41;20.92;;;11.13;;
8704;SDS011;4389;41.932;25.904;2022-08-19T05:37:09;16.05;;;10.60;;
8704;SDS011;4389;41.932;25.904;2022-08-19T05:39:37;14.35;;;10.00;;
8704;SDS011;4389;41.932;25.904;2022-08-19T05:42:06;17.23;;;11.43;;
8704;SDS011;4389;41.932;25.904;2022-08-19T05:44:36;13.40;;;11.13;;
8704;SDS011;4389;41.932;25.904;2022-08-19T05:47:05;18.88;;;10.45;;
8704;SDS011;4389;41.932;25.904;2022-08-19T05:49:33;18.02;;;11.70;;
8704;SDS011;4389;41.932;25.904;2022-08-19T05:52:02;23.88;;;15.25;;
8704;SDS011;4389;41.932;25.904;2022-08-19T05:54:31;14.23;;;10.18;;
8704;SDS011;4389;41.932;25.904;2022-08-19T05:56:59;13.10;;;9.70;;
8704;SDS011;4389;41.932;25.904;2022-08-19T05:59:27;16.58;;;9.73;;
8704;SDS011;4389;41.932;25.904;2022-08-19T06:01:54;15.02;;;10.20;;
8704;SDS011;4389;41.932;25.904;2022-08-19T06:04:22;12.80;;;10.18;;
8704;SDS011;4389;41.932;25.904;2022-08-19T06:06:50;17.20;;;9.40;;
8704;SDS011;4389;41.932;25.904;2022-08-19T06:09:19;19.08;;;9.43;;
8704;SDS011;4389;41.932;25.904;2022-08-19T06:11:48;12.13;;;9.38;;
8704;SDS011;4389;41.932;25.904;2022-08-19T06:14:19;22.92;;;10.25;;
8704;SDS011;4389;41.932;25.904;2022-08-19T06:16:48;18.42;;;10.70;;
8704;SDS011;4389;41.932;25.904;2022-08-19T06:19:18;17.13;;;11.57;;
8704;SDS011;4389;41.932;25.904;2022-08-19T06:21:48;19.98;;;9.23;;
8704;SDS011;4389;41.932;25.904;2022-08-19T06:24:17;15.48;;;8.75;;
8704;SDS011;4389;41.932;25.904;2022-08-19T06:26:49;11.30;;;9.25;;
8704;SDS011;4389;41.932;25.904;2022-08-19T06:29:18;19.27;;;10.18;;
8704;SDS011;4389;41.932;25.904;2022-08-19T06:31:47;11.75;;;9.07;;
8704;SDS011;4389;41.932;25.904;2022-08-19T06:34:15;20.88;;;8.88;;
8704;SDS011;4389;41.932;25.904;2022-08-19T06:36:44;24.65;;;9.98;;
8704;SDS011;4389;41.932;25.904;2022-08-19T06:39:13;14.70;;;11.35;;
8704;SDS011;4389;41.932;25.904;2022-08-19T06:41:42;10.50;;;8.85;;
8704;SDS011;4389;41.932;25.904;2022-08-19T06:44:12;11.18;;;8.60;;
8704;SDS011;4389;41.932;25.904;2022-08-19T06:46:39;15.10;;;7.72;;
8704;SDS011;4389;41.932;25.904;2022-08-19T06:49:08;13.80;;;7.75;;
8704;SDS011;4389;41.932;25.904;2022-08-19T06:51:36;8.50;;;7.45;;
8704;SDS011;4389;41.932;25.904;2022-08-19T06:54:04;12.68;;;7.70;;
8704;SDS011;4389;41.932;25.904;2022-08-19T06:56:31;12.50;;;7.43;;
8704;SDS011;4389;41.932;25.904;2022-08-19T06:59:00;13.27;;;8.60;;
8704;SDS011;4389;41.932;25.904;2022-08-19T07:01:29;9.75;;;7.85;;
8704;SDS011;4389;41.932;25.904;2022-08-19T07:03:56;11.75;;;7.65;;
8704;SDS011;4389;41.932;25.904;2022-08-19T07:06:22;14.02;;;7.00;;
8704;SDS011;4389;41.932;25.904;2022-08-19T07:08:49;25.77;;;8.27;;
8704;SDS011;4389;41.932;25.904;2022-08-19T07:11:17;14.18;;;7.80;;
8704;SDS011;4389;41.932;25.904;2022-08-19T07:13:44;11.20;;;7.20;;
8704;SDS011;4389;41.932;25.904;2022-08-19T07:16:14;13.18;;;11.05;;
8704;SDS011;4389;41.932;25.904;2022-08-19T07:18:46;13.13;;;8.15;;
8704;SDS011;4389;41.932;25.904;2022-08-19T07:21:14;7.57;;;6.80;;
8704;SDS011;4389;41.932;25.904;2022-08-19T07:23:42;13.50;;;8.10;;
8704;SDS011;4389;41.932;25.904;2022-08-19T07:26:10;9.13;;;7.10;;
8704;SDS011;4389;41.932;25.904;2022-08-19T07:28:39;16.45;;;7.95;;
8704;SDS011;4389;41.932;25.904;2022-08-19T07:31:09;12.65;;;7.40;;
8704;SDS011;4389;41.932;25.904;2022-08-19T07:33:38;13.02;;;8.80;;
8704;SDS011;4389;41.932;25.904;2022-08-19T07:36:08;13.65;;;7.35;;
8704;SDS011;4389;41.932;25.904;2022-08-19T07:38:38;21.15;;;14.88;;
8704;SDS011;4389;41.932;25.904;2022-08-19T07:41:07;20.73;;;7.63;;
8704;SDS011;4389;41.932;25.904;2022-08-19T07:43:35;7.68;;;6.50;;
8704;SDS011;4389;41.932;25.904;2022-08-19T07:46:03;9.98;;;6.80;;
8704;SDS011;4389;41.932;25.904;2022-08-19T07:48:30;8.35;;;6.47;;
8704;SDS011;4389;41.932;25.904;2022-08-19T07:50:58;7.80;;;5.78;;
8704;SDS011;4389;41.932;25.904;2022-08-19T07:53:29;6.95;;;6.35;;
8704;SDS011;4389;41.932;25.904;2022-08-19T07:55:58;7.30;;;6.60;;
8704;SDS011;4389;41.932;25.904;2022-08-19T07:58:29;11.70;;;7.40;;
8704;SDS011;4389;41.932;25.904;2022-08-19T08:00:57;8.73;;;6.65;;
8704;SDS011;4389;41.932;25.904;2022-08-19T08:03:24;13.05;;;7.50;;
8704;SDS011;4389;41.932;25.904;2022-08-19T08:06:06;12.27;;;7.13;;
8704;SDS011;4389;41.932;25.904;2022-08-19T08:08:52;9.52;;;7.05;;
8704;SDS011;4389;41.932;25.904;2022-08-19T08:11:37;19.40;;;8.13;;
8704;SDS011;4389;41.932;25.904;2022-08-19T08:14:04;14.95;;;7.38;;
8704;SDS011;4389;41.932;25.904;2022-08-19T08:16:33;10.65;;;7.05;;
8704;SDS011;4389;41.932;25.904;2022-08-19T08:19:03;10.88;;;6.85;;
8704;SDS011;4389;41.932;25.904;2022-08-19T08:21:30;8.57;;;6.88;;
8704;SDS011;4389;41.932;25.904;2022-08-19T08:23:59;12.65;;;6.28;;
8704;SDS011;4389;41.932;25.904;2022-08-19T08:26:27;8.65;;;7.18;;
8704;SDS011;4389;41.932;25.904;2022-08-19T08:28:54;9.82;;;6.43;;
8704;SDS011;4389;41.932;25.904;2022-08-19T08:31:21;11.95;;;6.72;;
8704;SDS011;4389;41.932;25.904;2022-08-19T08:33:48;6.60;;;6.00;;
8704;SDS011;4389;41.932;25.904;2022-08-19T08:36:15;10.65;;;8.10;;
8704;SDS011;4389;41.932;25.904;2022-08-19T08:38:42;7.40;;;6.68;;
8704;SDS011;4389;41.932;25.904;2022-08-19T08:41:13;6.82;;;6.13;;
8704;SDS011;4389;41.932;25.904;2022-08-19T08:43:46;6.97;;;6.28;;
8704;SDS011;4389;41.932;25.904;2022-08-19T08:46:17;7.45;;;6.75;;
8704;SDS011;4389;41.932;25.904;2022-08-19T08:48:51;9.95;;;7.07;;
8704;SDS011;4389;41.932;25.904;2022-08-19T08:51:23;8.63;;;6.38;;
8704;SDS011;4389;41.932;25.904;2022-08-19T08:53:54;7.65;;;6.25;;
8704;SDS011;4389;41.932;25.904;2022-08-19T08:56:24;7.63;;;6.43;;
8704;SDS011;4389;41.932;25.904;2022-08-19T08:58:51;7.28;;;6.55;;
8704;SDS011;4389;41.932;25.904;2022-08-19T09:01:23;6.10;;;5.55;;
8704;SDS011;4389;41.932;25.904;2022-08-19T09:03:50;10.25;;;6.20;;
8704;SDS011;4389;41.932;25.904;2022-08-19T09:06:19;7.65;;;6.50;;
8704;SDS011;4389;41.932;25.904;2022-08-19T09:08:57;10.70;;;5.90;;
8704;SDS011;4389;41.932;25.904;2022-08-19T09:11:33;10.18;;;5.93;;
8704;SDS011;4389;41.932;25.904;2022-08-19T09:14:20;5.75;;;5.15;;
8704;SDS011;4389;41.932;25.904;2022-08-19T09:16:58;6.13;;;5.43;;
8704;SDS011;4389;41.932;25.904;2022-08-19T09:19:28;7.15;;;5.60;;
8704;SDS011;4389;41.932;25.904;2022-08-19T09:21:56;7.53;;;5.22;;
8704;SDS011;4389;41.932;25.904;2022-08-19T09:24:26;5.95;;;5.45;;
8704;SDS011;4389;41.932;25.904;2022-08-19T09:26:54;8.15;;;5.32;;
8704;SDS011;4389;41.932;25.904;2022-08-19T09:29:21;6.72;;;5.97;;
8704;SDS011;4389;41.932;25.904;2022-08-19T09:31:48;6.90;;;5.40;;
8704;SDS011;4389;41.932;25.904;2022-08-19T09:34:16;13.15;;;6.72;;
8704;SDS011;4389;41.932;25.904;2022-08-19T09:36:42;13.05;;;5.80;;
8704;SDS011;4389;41.932;25.904;2022-08-19T09:39:09;11.52;;;5.25;;
8704;SDS011;4389;41.932;25.904;2022-08-19T09:41:36;7.10;;;5.00;;
8704;SDS011;4389;41.932;25.904;2022-08-19T09:44:05;6.28;;;5.65;;
8704;SDS011;4389;41.932;25.904;2022-08-19T09:46:31;10.23;;;6.18;;
8704;SDS011;4389;41.932;25.904;2022-08-19T09:48:59;11.93;;;6.05;;
8704;SDS011;4389;41.932;25.904;2022-08-19T09:51:26;9.50;;;5.65;;
8704;SDS011;4389;41.932;25.904;2022-08-19T09:53:55;8.30;;;6.38;;
8704;SDS011;4389;41.932;25.904;2022-08-19T09:56:26;6.57;;;5.95;;
8704;SDS011;4389;41.932;25.904;2022-08-19T09:58:53;6.60;;;5.90;;
8704;SDS011;4389;41.932;25.904;2022-08-19T10:01:22;10.38;;;5.70;;
8704;SDS011;4389;41.932;25.904;2022-08-19T10:03:51;6.90;;;5.10;;
8704;SDS011;4389;41.932;25.904;2022-08-19T10:06:19;15.48;;;6.38;;
8704;SDS011;4389;41.932;25.904;2022-08-19T10:08:47;6.50;;;5.82;;
8704;SDS011;4389;41.932;25.904;2022-08-19T10:11:14;9.27;;;6.00;;
8704;SDS011;4389;41.932;25.904;2022-08-19T10:13:42;6.95;;;5.82;;
8704;SDS011;4389;41.932;25.904;2022-08-19T10:16:10;5.97;;;5.35;;
8704;SDS011;4389;41.932;25.904;2022-08-19T10:18:40;11.98;;;5.78;;
8704;SDS011;4389;41.932;25.904;2022-08-19T10:21:10;8.73;;;5.43;;
8704;SDS011;4389;41.932;25.904;2022-08-19T10:23:39;9.77;;;5.95;;
8704;SDS011;4389;41.932;25.904;2022-08-19T10:26:08;6.22;;;5.65;;
8704;SDS011;4389;41.932;25.904;2022-08-19T10:28:36;7.20;;;5.53;;
8704;SDS011;4389;41.932;25.904;2022-08-19T10:31:04;5.95;;;5.20;;
8704;SDS011;4389;41.932;25.904;2022-08-19T10:33:31;6.35;;;5.20;;
8704;SDS011;4389;41.932;25.904;2022-08-19T10:36:01;7.20;;;5.05;;
8704;SDS011;4389;41.932;25.904;2022-08-19T10:38:28;7.32;;;5.30;;
8704;SDS011;4389;41.932;25.904;2022-08-19T10:40:56;5.68;;;5.18;;
8704;SDS011;4389;41.932;25.904;2022-08-19T10:43:23;10.77;;;5.50;;
8704;SDS011;4389;41.932;25.904;2022-08-19T10:45:54;11.15;;;5.80;;
8704;SDS011;4389;41.932;25.904;2022-08-19T10:48:24;8.35;;;5.47;;
8704;SDS011;4389;41.932;25.904;2022-08-19T10:50:51;7.22;;;5.20;;
8704;SDS011;4389;41.932;25.904;2022-08-19T10:53:36;5.38;;;4.60;;
8704;SDS011;4389;41.932;25.904;2022-08-19T10:56:03;6.57;;;4.93;;
8704;SDS011;4389;41.932;25.904;2022-08-19T10:58:48;9.30;;;5.07;;
8704;SDS011;4389;41.932;25.904;2022-08-19T11:01:15;5.90;;;5.30;;
8704;SDS011;4389;41.932;25.904;2022-08-19T11:03:42;7.72;;;4.70;;
8704;SDS011;4389;41.932;25.904;2022-08-19T11:06:10;7.28;;;5.35;;
8704;SDS011;4389;41.932;25.904;2022-08-19T11:08:39;7.68;;;4.40;;
8704;SDS011;4389;41.932;25.904;2022-08-19T11:11:07;7.18;;;4.90;;
8704;SDS011;4389;41.932;25.904;2022-08-19T11:13:35;5.90;;;4.55;;
8704;SDS011;4389;41.932;25.904;2022-08-19T11:16:04;6.55;;;4.95;;
8704;SDS011;4389;41.932;25.904;2022-08-19T11:18:35;8.68;;;5.35;;
8704;SDS011;4389;41.932;25.904;2022-08-19T11:21:10;7.97;;;4.70;;
8704;SDS011;4389;41.932;25.904;2022-08-19T11:23:41;7.75;;;4.80;;
8704;SDS011;4389;41.932;25.904;2022-08-19T11:26:08;6.55;;;4.75;;
8704;SDS011;4389;41.932;25.904;2022-08-19T11:28:36;5.90;;;4.68;;
8704;SDS011;4389;41.932;25.904;2022-08-19T11:31:03;6.38;;;4.90;;
8704;SDS011;4389;41.932;25.904;2022-08-19T11:33:31;5.22;;;4.72;;
8704;SDS011;4389;41.932;25.904;2022-08-19T11:35:58;5.20;;;4.70;;
8704;SDS011;4389;41.932;25.904;2022-08-19T11:38:26;5.00;;;4.60;;
8704;SDS011;4389;41.932;25.904;2022-08-19T11:40:55;4.72;;;4.03;;
8704;SDS011;4389;41.932;25.904;2022-08-19T11:43:23;8.93;;;4.78;;
8704;SDS011;4389;41.932;25.904;2022-08-19T11:45:51;7.38;;;5.85;;
8704;SDS011;4389;41.932;25.904;2022-08-19T11:48:18;5.95;;;5.22;;
8704;SDS011;4389;41.932;25.904;2022-08-19T11:50:47;7.85;;;5.25;;
8704;SDS011;4389;41.932;25.904;2022-08-19T11:53:14;6.22;;;4.57;;
8704;SDS011;4389;41.932;25.904;2022-08-19T11:55:43;7.57;;;5.03;;
8704;SDS011;4389;41.932;25.904;2022-08-19T11:58:12;5.75;;;4.38;;
8704;SDS011;4389;41.932;25.904;2022-08-19T12:00:40;4.80;;;4.40;;
8704;SDS011;4389;41.932;25.904;2022-08-19T12:03:07;7.80;;;4.63;;
8704;SDS011;4389;41.932;25.904;2022-08-19T12:05:36;5.25;;;4.75;;
8704;SDS011;4389;41.932;25.904;2022-08-19T12:08:05;5.45;;;4.45;;
8704;SDS011;4389;41.932;25.904;2022-08-19T12:10:32;5.63;;;4.75;;
8704;SDS011;4389;41.932;25.904;2022-08-19T12:13:00;6.90;;;5.50;;
8704;SDS011;4389;41.932;25.904;2022-08-19T12:15:28;16.77;;;6.03;;
8704;SDS011;4389;41.932;25.904;2022-08-19T12:17:56;6.18;;;4.47;;
8704;SDS011;4389;41.932;25.904;2022-08-19T12:20:23;4.90;;;4.40;;
8704;SDS011;4389;41.932;25.904;2022-08-19T12:22:51;12.82;;;5.30;;
8704;SDS011;4389;41.932;25.904;2022-08-19T12:25:18;6.47;;;5.25;;
8704;SDS011;4389;41.932;25.904;2022-08-19T12:27:46;7.53;;;4.30;;
8704;SDS011;4389;41.932;25.904;2022-08-19T12:30:15;6.28;;;5.13;;
8704;SDS011;4389;41.932;25.904;2022-08-19T12:32:43;5.57;;;4.97;;
8704;SDS011;4389;41.932;25.904;2022-08-19T12:35:10;5.20;;;4.70;;
8704;SDS011;4389;41.932;25.904;2022-08-19T12:37:37;7.70;;;5.35;;
8704;SDS011;4389;41.932;25.904;2022-08-19T12:40:10;7.75;;;5.88;;
8704;SDS011;4389;41.932;25.904;2022-08-19T12:42:38;8.55;;;4.63;;
8704;SDS011;4389;41.932;25.904;2022-08-19T12:45:08;6.85;;;4.68;;
8704;SDS011;4389;41.932;25.904;2022-08-19T12:47:36;4.75;;;4.25;;
8704;SDS011;4389;41.932;25.904;2022-08-19T12:50:05;5.65;;;4.75;;
8704;SDS011;4389;41.932;25.904;2022-08-19T12:52:33;5.90;;;4.38;;
8704;SDS011;4389;41.932;25.904;2022-08-19T12:55:03;6.47;;;4.70;;
8704;SDS011;4389;41.932;25.904;2022-08-19T12:57:31;5.43;;;4.90;;
8704;SDS011;4389;41.932;25.904;2022-08-19T12:59:59;8.38;;;4.75;;
8704;SDS011;4389;41.932;25.904;2022-08-19T13:02:28;6.57;;;4.90;;
8704;SDS011;4389;41.932;25.904;2022-08-19T13:04:57;12.18;;;5.28;;
8704;SDS011;4389;41.932;25.904;2022-08-19T13:07:25;8.40;;;5.00;;
8704;SDS011;4389;41.932;25.904;2022-08-19T13:09:52;6.35;;;4.53;;
8704;SDS011;4389;41.932;25.904;2022-08-19T13:12:19;6.38;;;4.85;;
8704;SDS011;4389;41.932;25.904;2022-08-19T13:14:46;9.30;;;4.93;;
8704;SDS011;4389;41.932;25.904;2022-08-19T13:17:15;9.73;;;5.43;;
8704;SDS011;4389;41.932;25.904;2022-08-19T13:19:42;4.82;;;4.35;;
8704;SDS011;4389;41.932;25.904;2022-08-19T13:22:09;9.88;;;4.78;;
8704;SDS011;4389;41.932;25.904;2022-08-19T13:24:38;4.85;;;3.97;;
8704;SDS011;4389;41.932;25.904;2022-08-19T13:27:05;6.43;;;4.60;;
8704;SDS011;4389;41.932;25.904;2022-08-19T13:29:33;8.40;;;5.05;;
8704;SDS011;4389;41.932;25.904;2022-08-19T13:32:17;9.20;;;4.32;;
8704;SDS011;4389;41.932;25.904;2022-08-19T13:35:01;5.38;;;4.40;;
8704;SDS011;4389;41.932;25.904;2022-08-19T13:37:28;10.82;;;5.90;;
8704;SDS011;4389;41.932;25.904;2022-08-19T13:40:13;9.32;;;4.93;;
8704;SDS011;4389;41.932;25.904;2022-08-19T13:42:43;5.68;;;4.80;;
8704;SDS011;4389;41.932;25.904;2022-08-19T13:45:12;6.00;;;4.95;;
8704;SDS011;4389;41.932;25.904;2022-08-19T13:47:40;5.95;;;4.03;;
8704;SDS011;4389;41.932;25.904;2022-08-19T13:50:09;12.98;;;4.47;;
8704;SDS011;4389;41.932;25.904;2022-08-19T13:52:37;6.63;;;5.18;;
8704;SDS011;4389;41.932;25.904;2022-08-19T13:55:04;7.28;;;4.53;;
8704;SDS011;4389;41.932;25.904;2022-08-19T13:57:34;4.28;;;3.70;;
8704;SDS011;4389;41.932;25.904;2022-08-19T14:00:03;12.38;;;4.90;;
8704;SDS011;4389;41.932;25.904;2022-08-19T14:02:30;5.88;;;4.47;;
8704;SDS011;4389;41.932;25.904;2022-08-19T14:04:57;4.55;;;4.15;;
8704;SDS011;4389;41.932;25.904;2022-08-19T14:07:24;6.22;;;4.38;;
8704;SDS011;4389;41.932;25.904;2022-08-19T14:09:51;4.22;;;3.92;;
8704;SDS011;4389;41.932;25.904;2022-08-19T14:12:18;6.43;;;3.92;;
8704;SDS011;4389;41.932;25.904;2022-08-19T14:14:48;8.07;;;3.78;;
8704;SDS011;4389;41.932;25.904;2022-08-19T14:17:15;9.63;;;4.40;;
8704;SDS011;4389;41.932;25.904;2022-08-19T14:19:42;11.05;;;4.35;;
8704;SDS011;4389;41.932;25.904;2022-08-19T14:22:09;5.47;;;4.10;;
8704;SDS011;4389;41.932;25.904;2022-08-19T14:24:36;5.40;;;4.05;;
8704;SDS011;4389;41.932;25.904;2022-08-19T14:27:04;10.88;;;5.53;;
8704;SDS011;4389;41.932;25.904;2022-08-19T14:29:32;9.63;;;4.60;;
8704;SDS011;4389;41.932;25.904;2022-08-19T14:32:01;6.60;;;4.53;;
8704;SDS011;4389;41.932;25.904;2022-08-19T14:34:28;6.47;;;4.40;;
8704;SDS011;4389;41.932;25.904;2022-08-19T14:36:57;5.00;;;4.60;;
8704;SDS011;4389;41.932;25.904;2022-08-19T14:39:24;4.65;;;3.60;;
8704;SDS011;4389;41.932;25.904;2022-08-19T14:41:50;7.97;;;4.13;;
8704;SDS011;4389;41.932;25.904;2022-08-19T14:44:18;7.35;;;3.80;;
8704;SDS011;4389;41.932;25.904;2022-08-19T14:46:45;6.85;;;4.00;;
8704;SDS011;4389;41.932;25.904;2022-08-19T14:49:13;4.68;;;3.92;;
8704;SDS011;4389;41.932;25.904;2022-08-19T14:51:40;4.70;;;4.00;;
8704;SDS011;4389;41.932;25.904;2022-08-19T14:54:07;4.63;;;4.05;;
8704;SDS011;4389;41.932;25.904;2022-08-19T14:56:34;8.60;;;4.50;;
8704;SDS011;4389;41.932;25.904;2022-08-19T14:59:01;6.05;;;4.57;;
8704;SDS011;4389;41.932;25.904;2022-08-19T15:01:28;8.77;;;4.13;;